Nearby METAR Reports

 

KSJC - San Jose, California, USA
Distance from station: NØ 14km
Opdateret: 18/07/2019 14:53
Mest skyet
Mest skyet
 Vind retning S
Vind: S 13 km/h
Temperatur: 15°C
Dugpunkt: 13°C
Fugtighed: 88%
Barometer: 1013.2 hPa
Clouds: Mest skyet
Visibility: 16 km
Cloud details: Few Clouds 91 m
Mest skyet 2896 m
Mest skyet 4877 m
2019/07/18 12:53 KSJC 181253Z 17007KT 10SM FEW003 BKN095 BKN160 15/13 A2992 RMK AO2 SLP129 T01500128 $
KNUQ - Moffett Nas/Mtn, California, USA
Distance from station: N 14km
Opdateret: 18/07/2019 14:56
Klart
Klart
 Vind retning SSØ
Vind: SSØ 6 km/h
Temperatur: 16°C
Dugpunkt: 12°C
Fugtighed: 77%
Barometer: 1013.2 hPa
Clouds: Klart
Visibility: 16 km
2019/07/18 12:56 KNUQ 181256Z 15003KT 10SM CLR 16/12 A2992 RMK AO2 SLP133 T01610117 $
 
KPAO - Palo Alto, California, USA
Distance from station: NNV 23km
Opdateret: 18/07/2019 05:47
NOT Current
Delvist skyet
Delvist skyet
 Vind retning NV
Vind: NV 15 km/h
Temperatur: 19°C
Dugpunkt: 15°C
Fugtighed: 78%
Barometer: 1011.9 hPa
Clouds: Delvist skyet
Visibility: 16 km
Cloud details: Delvist skyet 3658 m
2019/07/18 03:47 KPAO 180347Z 32008KT 10SM SCT120 19/15 A2988 RMK LAST GPS/VOR NA AT NIGHT
KRHV - San Jose/Reid, California, USA
Distance from station: ØNØ 19km
Opdateret: 18/07/2019 06:57
NOT Current
Klart
Klart
 Vind retning varies
Vind: varies 11 km/h
Temperatur: 23°C
Dugpunkt: 12°C
Fugtighed: 50%
Barometer: 1012.9 hPa
Clouds: Klart
Visibility: 16 km
2019/07/18 04:57 KRHV 180457Z VRB06KT 10SM SKC 23/12 A2991 RMK LAST
 
KOAK - Oakland, California, USA
Distance from station: NNV 50km
Opdateret: 18/07/2019 15:29
Overskyet
Overskyet
 Vind retning calm
Vind: Vindstille
Temperatur: 16°C
Dugpunkt: 13°C
Fugtighed: 83%
Barometer: 1013.2 hPa
Clouds: Overskyet
Visibility: 16 km
Cloud details: Few Clouds 244 m
Mest skyet 335 m
Overskyet 7620 m
2019/07/18 13:29 KOAK 181329Z 00000KT 10SM FEW008 BKN011 OVC250 16/13 A2992 RMK AO2 T01560133 $
KSQL - San Carlos Airpo, California, USA
Distance from station: NV 34km
Opdateret: 18/07/2019 05:47
NOT Current
Klart
Klart
 Vind retning NV
Vind: NV 11 km/h
Temperatur: 20°C
Dugpunkt: 13°C
Fugtighed: 64%
Barometer: 1012.2 hPa
Clouds: Klart
Visibility: 16 km
2019/07/18 03:47 KSQL 180347Z 31006KT 10SM SKC 20/13 A2989 RMK LAST
 
KSFO - San Francisco, California, USA
Distance from station: NV 49km
Opdateret: 18/07/2019 14:56
Delvist skyet
Delvist skyet
 Vind retning VNV
Vind: VNV 11 km/h
Temperatur: 15°C
Dugpunkt: 12°C
Fugtighed: 82%
Barometer: 1012.9 hPa
Clouds: Delvist skyet
Visibility: 16 km
Cloud details: Few Clouds 244 m
Delvist skyet 6096 m
2019/07/18 12:56 KSFO 181256Z 29006KT 10SM FEW008 SCT200 15/12 A2991 RMK AO2 SLP128 T01500117
KE16 - San Martin, California, USA
Distance from station: ØSØ 43km
Opdateret: 18/07/2019 15:10
Overskyet
Overskyet
 Vind retning SØ
Vind: SØ 20 km/h, Vindstød: 28 km/h
Temperatur: 13°C
Dugpunkt: 12°C
Fugtighed: 94%
Barometer: 1014.9 hPa
Clouds: Overskyet
Visibility: 16 km
Cloud details: Overskyet 122 m
2019/07/18 13:10 KE16 181310Z AUTO 13011G15KT 10SM OVC004 13/12 A2997 RMK AO2
 
KWVI - Watsonville, California, USA
Distance from station: SSØ 44km
Opdateret: 18/07/2019 14:53
Overskyet
Overskyet
 Vind retning S
Vind: S 7 km/h
Temperatur: 13°C
Dugpunkt: 12°C
Fugtighed: 94%
Barometer: 1014.6 hPa
Clouds: Overskyet
Visibility: 11 km
Cloud details: Overskyet 122 m
2019/07/18 12:53 KWVI 181253Z AUTO 19004KT 7SM OVC004 13/12 A2996 RMK AO2 SLP146 T01330122
KHAF - Half Moon Bay, California, USA
Distance from station: VNV 50km
Opdateret: 18/07/2019 15:20
Mist, Overskyet
Mist, Overskyet
 Vind retning SØ
Vind: SØ 13 km/h
Temperatur: 13°C
Dugpunkt: 13°C
Fugtighed: 100%
Barometer: 1014.2 hPa
Oversigt: Mist
Clouds: Overskyet
Visibility: 2 km
Cloud details: Overskyet 122 m
2019/07/18 13:20 KHAF 181320Z AUTO 14007KT 1 1/4SM BR OVC004 13/13 A2995 RMK AO2
 
KHWD - Hayward, California, USA
Distance from station: N 44km
Opdateret: 18/07/2019 14:54
Klart
Klart
 Vind retning N
Vind: N 6 km/h
Temperatur: 14°C
Dugpunkt: 12°C
Fugtighed: 88%
Barometer: 1012.9 hPa
Clouds: Klart
Visibility: 16 km
2019/07/18 12:54 KHWD 181254Z AUTO 35003KT 10SM CLR 14/12 A2991 RMK AO2 SLP138 T01440122
KLVK - Livermore, California, USA
Distance from station: NNØ 51km
Opdateret: 18/07/2019 14:53
Klart
Klart
 Vind retning calm
Vind: Vindstille
Temperatur: 16°C
Dugpunkt: 12°C
Fugtighed: 77%
Barometer: 1012.2 hPa
Clouds: Klart
Visibility: 16 km
2019/07/18 12:53 KLVK 181253Z AUTO 00000KT 10SM CLR 16/12 A2989 RMK AO2 SLP120 T01560122